ěÝzenÝ letovÚho provozu ╚eskÚ republiky
Letiste: LKMT Aktualizace: 27.02.2024 14:31:41  UTC
 METAR LKMT 27.02. 14:30 ...
METAR LKMT 271430Z 23008KT CAVOK 16/07 Q1012 NOSIG=
 TAF LKMT 27.02. 11:00 ...
TAF LKMT 271100Z 2712/2812 18006KT CAVOK      BECMG 2718/2720 9999 BKN030=